Etusivu
METAR-TAF:

METAR-TAF

Lentoasemat :

Bagdadin kansainvälinen lentoasema

Bagdad, Irak

Leveyspiiri: 33-15-45N, Pituuspiiri: 44-14-04E, korkeus merenpinnasta: 35 m

Tämänhetkinen sää

Tämä raportti tehtiin 33 minuuttia sitten, kello 04.00 UTC
Tuuli 9 kn lännestä
Lämpötila 30°C
Kosteus 33%
Ilmanpaine 999 hPa
Näkyvyys 10 km tai enemmän
ei pilviä alle 1500 m:ssä eikä cumulonimbus-pilviä

METAR: ORBI 220400Z 28009KT CAVOK 30/12 Q0999 NOSIG

Aika: 07:33 (04:33 UTC)

Sääennuste

Tämä raportti tehtiin 12 tuntia ja 33 minuuttia sitten, kello 16.00 UTC
Ennuste voimassa 21. päivästä klo 18 UTC - 22. päivään klo 18 UTC
Tuuli 12 kn lännestä/luoteesta
Näkyvyys: 7000 m

TAF: ORBI 211600Z 2118/2218 30012KT 7000 NSC

Säähavainnot ja -ennusteet yli 4000 lentoasemalta (METAR- ja TAF-raportit).

Käytössä olevat sääasemat on merkitty karttaan keltaisilla ja punaisilla pisteillä.

Aseta hiiri pisteen päälle nähdäksesi sääaseman nimen.

Klikkaa sitten nähdäksesi säähavainnot ja -ennusteet.

Kartan vaihtaminen: klikkaa mustalla rastilla varustettuja vihreitä pisteitä, niin voit zoomata sisään; viivalla varustettua vihreää pistettä, niin voit zoomata ulos tai vihreitä nuolia, niin pääset viereisille kartoille.


METAR-TAF: